Pagrindinis puslapis
METAR-TAF:

METAR-TAF

Oro uostai :

Aden Ade tarptautinis oro uostas

Mogadišas, Somalis

platuma: 02-02N, ilguma: 045-21E, Aukštis: 9 m

Dabartinis oras

Ataskaita buvo paskelbta 44 minutes, ne 05:00 UTC
Vėjas 16 kt iš Pietų/Pietvakarių
Temperatūra 26°C
Drėgmė 65%
Slėgis 1012 hPa
Matomumas 10 km arba daugiau
Išsisklaidę debesys ne aukštis 2200 ft

METAR: HCMM 140500Z 20016KT 9999 SCT022 26/19 Q1012

Laikas: 08:44 (05:44 UTC)


TAF: trūkstamas

Orai ataskaitas ir orų prognozės (METAR, TAF).

turimą stotys yra geltonos ir raudonos taškus žemėlapyje.

Perkelti pele per norėdami pamatyti stoties vardą.

Tada spustelėkite, norėdami matyti oro stebėjimo ir prognozės.

Norėdami pakeisti žemėlapį: spustelėkite ant žalios mygtukų su juodo kryžiaus žemyn,; žalią mygtuką su brūkšneliu, jei norite nutolinti; arba žalių rodyklių gretimoms žemėlapius.


METAR-TAF: